Time;durP1;ratioP1;P1;durP2;ratioP2;P2;SDS_P1;SDS_P2;PMS_P1;PMS_P2;Temp;Humidity;BMP_temperature;BMP_pressure;BME280_temperature;BME280_humidity;BME280_pressure;Samples;Min_cycle;Max_cycle;Signal;HPM_P1;HPM_P2
2023/02/22 00:02:49;;;;;;;16.05;7.80;;;13.00;57.20;;;;;;7540476;23;20017;-68
2023/02/22 00:05:57;;;;;;;23.00;8.80;;;13.00;57.20;;;;;;7565766;23;20006;-67
2023/02/22 00:08:58;;;;;;;20.10;7.93;;;13.00;57.30;;;;;;7565680;23;20006;-69
2023/02/22 00:12:00;;;;;;;20.55;8.25;;;13.00;57.30;;;;;;7565750;23;20013;-68
2023/02/22 00:15:01;;;;;;;21.02;9.18;;;13.00;57.30;;;;;;7565589;23;20006;-69
2023/02/22 00:18:03;;;;;;;22.73;9.85;;;12.90;57.30;;;;;;7565235;23;20344;-67
2023/02/22 00:21:09;;;;;;;20.90;8.93;;;12.80;57.50;;;;;;7540296;23;20029;-68
2023/02/22 00:24:21;;;;;;;18.83;8.80;;;12.80;57.70;;;;;;7540028;23;20313;-69
2023/02/22 00:27:22;;;;;;;20.77;9.45;;;12.70;57.80;;;;;;7565184;23;20018;-69
2023/02/22 00:30:26;;;;;;;22.65;8.82;;;12.70;57.90;;;;;;7540184;23;20034;-68
2023/02/22 00:33:27;;;;;;;23.20;10.02;;;12.60;58.00;;;;;;7540051;23;20312;-67
2023/02/22 00:36:28;;;;;;;18.20;8.75;;;12.60;58.10;;;;;;7540064;23;20018;-69
2023/02/22 00:39:30;;;;;;;24.75;9.05;;;12.60;58.20;;;;;;7549258;23;20348;-69
2023/02/22 00:42:31;;;;;;;23.73;9.07;;;12.50;58.20;;;;;;7565732;23;20010;-68
2023/02/22 00:45:33;;;;;;;21.25;9.45;;;12.50;58.20;;;;;;7563838;23;20020;-67
2023/02/22 00:48:34;;;;;;;22.63;9.02;;;12.40;58.30;;;;;;7565548;23;20010;-69
2023/02/22 00:51:35;;;;;;;17.83;7.88;;;12.40;58.40;;;;;;7564095;23;20094;-68
2023/02/22 00:54:36;;;;;;;16.90;8.15;;;12.40;58.50;;;;;;7565840;23;20083;-69
2023/02/22 00:57:37;;;;;;;18.15;8.00;;;12.40;58.50;;;;;;7565242;23;20062;-68
2023/02/22 01:00:40;;;;;;;27.42;8.20;;;12.30;58.50;;;;;;7566029;23;20006;-68
2023/02/22 01:03:41;;;;;;;20.15;7.70;;;12.30;58.50;;;;;;7565359;23;20034;-69
2023/02/22 01:06:42;;;;;;;15.50;7.57;;;12.30;58.50;;;;;;7566730;23;20070;-67
2023/02/22 01:09:43;;;;;;;18.73;7.68;;;12.30;58.50;;;;;;7541128;23;20011;-69
2023/02/22 01:12:46;;;;;;;25.50;8.55;;;12.30;58.60;;;;;;7565736;23;20309;-69
2023/02/22 01:15:47;;;;;;;23.10;8.63;;;12.20;58.60;;;;;;7563588;23;20066;-69
2023/02/22 01:18:48;;;;;;;19.90;8.50;;;12.20;58.60;;;;;;7563104;23;20014;-68
2023/02/22 01:21:49;;;;;;;19.52;8.65;;;12.20;58.70;;;;;;7563615;23;20014;-69
2023/02/22 01:24:50;;;;;;;21.95;8.68;;;12.20;58.80;;;;;;7563560;23;20313;-68
2023/02/22 01:27:52;;;;;;;27.27;10.07;;;12.20;58.80;;;;;;7564983;23;20013;-69
2023/02/22 01:30:55;;;;;;;27.73;10.88;;;12.20;58.90;;;;;;7564345;23;20440;-69
2023/02/22 01:33:58;;;;;;;32.67;9.02;;;12.20;58.90;;;;;;7541898;23;20006;-69
2023/02/22 01:37:00;;;;;;;21.80;10.70;;;12.20;59.10;;;;;;7567187;23;20021;-69
2023/02/22 01:40:03;;;;;;;23.42;9.82;;;12.20;59.30;;;;;;7567078;23;20405;-70
2023/02/22 01:43:32;;;;;;;28.45;10.18;;;12.20;59.40;;;;;;7517803;23;20147;-70
2023/02/22 01:46:33;;;;;;;35.97;11.93;;;12.20;59.50;;;;;;7541528;23;20014;-68
2023/02/22 01:49:44;;;;;;;30.73;9.65;;;12.20;59.60;;;;;;7567228;23;20069;-68
2023/02/22 01:52:45;;;;;;;27.80;10.60;;;12.10;59.60;;;;;;7567530;23;20002;-69
2023/02/22 01:55:47;;;;;;;24.98;10.07;;;12.10;59.70;;;;;;7542036;23;20045;-69
2023/02/22 01:58:54;;;;;;;26.13;10.68;;;12.00;59.90;;;;;;7541303;23;20093;-68
2023/02/22 02:01:55;;;;;;;26.15;10.75;;;12.00;60.00;;;;;;7541551;23;20395;-68
2023/02/22 02:04:58;;;;;;;25.25;10.25;;;12.00;60.10;;;;;;7567351;23;20010;-67
2023/02/22 02:08:12;;;;;;;25.60;10.20;;;11.90;60.10;;;;;;7541894;23;20038;-68
2023/02/22 02:11:13;;;;;;;23.35;10.75;;;11.90;60.30;;;;;;7571196;23;20010;-67
2023/02/22 02:14:14;;;;;;;29.60;10.77;;;11.80;60.40;;;;;;7545609;23;20007;-68
2023/02/22 02:17:19;;;;;;;31.75;10.60;;;11.80;60.70;;;;;;7544160;23;20014;-69
2023/02/22 02:20:41;;;;;;;37.58;11.02;;;11.80;60.80;;;;;;7569350;23;20054;-69
2023/02/22 02:24:09;;;;;;;26.75;11.25;;;11.70;61.00;;;;;;7521290;23;20038;-68
2023/02/22 02:27:18;;;;;;;29.20;11.52;;;11.70;61.10;;;;;;7541333;23;20021;-70
2023/02/22 02:30:46;;;;;;;30.02;11.95;;;11.70;61.10;;;;;;7541096;23;20011;-68
2023/02/22 02:34:08;;;;;;;27.30;11.50;;;11.70;61.20;;;;;;7541262;23;20134;-68
2023/02/22 02:37:37;;;;;;;28.70;12.95;;;11.70;61.30;;;;;;7541533;23;20010;-69
2023/02/22 02:41:10;;;;;;;33.40;11.88;;;11.70;61.40;;;;;;7564722;23;20018;-69
2023/02/22 02:44:17;;;;;;;29.25;11.27;;;11.70;61.30;;;;;;7546111;23;20409;-70
2023/02/22 02:47:25;;;;;;;29.65;12.25;;;11.70;61.40;;;;;;7565215;23;20021;-69
2023/02/22 02:50:35;;;;;;;33.70;13.23;;;11.70;61.30;;;;;;7565062;23;20010;-68
2023/02/22 02:53:47;;;;;;;27.80;12.80;;;11.70;61.30;;;;;;7565432;23;20007;-69
2023/02/22 02:56:49;;;;;;;28.15;11.75;;;11.70;61.30;;;;;;7566416;23;20017;-68
2023/02/22 02:59:51;;;;;;;34.30;13.45;;;11.70;61.20;;;;;;7566479;23;20018;-69
2023/02/22 03:03:07;;;;;;;36.63;13.15;;;11.70;61.20;;;;;;7564861;23;20022;-70
2023/02/22 03:06:19;;;;;;;32.88;13.35;;;11.70;61.20;;;;;;7564688;23;20169;-70
2023/02/22 03:09:40;;;;;;;31.20;13.65;;;11.60;61.20;;;;;;7566132;23;20009;-68
2023/02/22 03:12:57;;;;;;;33.67;12.93;;;11.60;61.30;;;;;;7564921;23;20003;-68
2023/02/22 03:16:08;;;;;;;31.33;12.27;;;11.60;61.40;;;;;;7564721;23;20097;-68
2023/02/22 03:19:12;;;;;;;32.78;13.15;;;11.60;61.50;;;;;;7564166;23;20021;-67
2023/02/22 03:22:13;;;;;;;29.80;11.73;;;11.60;61.70;;;;;;7564358;23;20360;-68
2023/02/22 03:25:18;;;;;;;31.70;14.55;;;11.60;61.70;;;;;;7565832;23;20013;-68
2023/02/22 03:28:25;;;;;;;35.88;14.10;;;11.60;61.80;;;;;;7563921;23;20633;-69
2023/02/22 03:31:30;;;;;;;32.97;12.55;;;11.60;61.90;;;;;;7541543;23;20017;-68
2023/02/22 03:34:41;;;;;;;33.58;12.82;;;11.50;61.80;;;;;;7564266;23;20077;-67
2023/02/22 03:37:46;;;;;;;22.80;10.80;;;11.50;61.90;;;;;;7565628;23;20014;-68
2023/02/22 03:40:53;;;;;;;24.17;10.93;;;11.50;62.00;;;;;;7516641;23;20373;-69
2023/02/22 03:44:11;;;;;;;25.10;7.68;;;11.50;62.00;;;;;;7540249;23;20011;-69
2023/02/22 03:47:17;;;;;;;19.15;7.13;;;11.40;62.00;;;;;;7565831;23;20097;-69
2023/02/22 03:50:25;;;;;;;13.57;6.85;;;11.50;61.90;;;;;;7516975;23;20006;-68
2023/02/22 03:53:26;;;;;;;19.87;8.23;;;11.40;61.60;;;;;;7540582;23;20047;-69
2023/02/22 03:56:37;;;;;;;13.07;5.35;;;11.50;61.40;;;;;;7516468;23;20072;-69
2023/02/22 03:59:39;;;;;;;11.40;5.75;;;11.50;61.20;;;;;;7565435;23;20085;-69
2023/02/22 04:02:41;;;;;;;9.80;4.80;;;11.50;61.00;;;;;;7540075;23;20074;-70
2023/02/22 04:05:46;;;;;;;9.93;5.07;;;11.50;60.70;;;;;;7540316;23;20022;-68
2023/02/22 04:08:48;;;;;;;15.93;5.03;;;11.50;60.40;;;;;;7540218;23;20029;-69
2023/02/22 04:11:49;;;;;;;12.80;5.30;;;11.50;60.00;;;;;;7541633;23;20006;-69
2023/02/22 04:14:50;;;;;;;9.25;4.75;;;11.50;59.80;;;;;;7541991;23;20313;-69
2023/02/22 04:17:51;;;;;;;12.00;5.35;;;11.60;59.70;;;;;;7540692;23;20421;-68
2023/02/22 04:20:52;;;;;;;13.32;5.70;;;11.60;59.50;;;;;;7539849;23;20427;-70
2023/02/22 04:24:05;;;;;;;12.85;4.97;;;11.60;59.30;;;;;;7540106;23;20423;-68
2023/02/22 04:27:06;;;;;;;20.60;7.47;;;11.60;59.10;;;;;;7516138;23;20021;-69
2023/02/22 04:30:11;;;;;;;17.55;7.22;;;11.60;59.00;;;;;;7539867;23;20010;-68
2023/02/22 04:33:14;;;;;;;25.33;8.70;;;11.60;59.10;;;;;;7539796;23;20455;-69
2023/02/22 04:36:16;;;;;;;19.38;9.20;;;11.60;59.30;;;;;;7565521;23;20440;-69
2023/02/22 04:39:19;;;;;;;22.42;9.98;;;11.50;59.40;;;;;;7546764;23;20045;-69
2023/02/22 04:42:20;;;;;;;21.75;8.43;;;11.40;59.50;;;;;;7563759;23;20014;-68
2023/02/22 04:45:21;;;;;;;15.93;7.95;;;11.40;59.50;;;;;;7563834;23;20017;-69
2023/02/22 04:48:22;;;;;;;16.95;7.65;;;11.40;59.60;;;;;;7563564;23;20074;-69
2023/02/22 04:51:24;;;;;;;23.80;8.40;;;11.40;59.70;;;;;;7563856;23;20143;-69
2023/02/22 04:54:30;;;;;;;15.40;7.65;;;11.40;59.80;;;;;;7564073;23;20090;-69
2023/02/22 04:57:32;;;;;;;17.70;7.68;;;11.30;59.80;;;;;;7563553;23;20010;-69
2023/02/22 05:00:33;;;;;;;16.30;7.97;;;11.30;59.90;;;;;;7565498;23;20026;-68
2023/02/22 05:03:37;;;;;;;22.80;8.93;;;11.20;59.90;;;;;;7540580;23;20397;-69
2023/02/22 05:06:38;;;;;;;16.80;7.70;;;11.20;60.00;;;;;;7567123;23;20428;-68
2023/02/22 05:09:39;;;;;;;17.98;8.00;;;11.20;60.20;;;;;;7569267;23;20013;-68
2023/02/22 05:12:40;;;;;;;16.48;7.82;;;11.20;60.30;;;;;;7570085;23;20011;-69
2023/02/22 05:15:41;;;;;;;22.67;8.43;;;11.20;60.40;;;;;;7570613;23;20007;-69
2023/02/22 05:18:42;;;;;;;17.05;7.72;;;11.20;60.50;;;;;;7566239;23;20014;-69
2023/02/22 05:21:43;;;;;;;20.42;8.68;;;11.10;60.50;;;;;;7566788;23;20024;-68
2023/02/22 05:24:44;;;;;;;20.30;8.27;;;11.10;60.60;;;;;;7568131;23;20007;-70
2023/02/22 05:27:50;;;;;;;22.00;9.85;;;11.10;60.70;;;;;;7568208;23;20006;-69
2023/02/22 05:30:51;;;;;;;21.13;8.05;;;11.10;60.70;;;;;;7567747;23;20037;-68
2023/02/22 05:33:52;;;;;;;23.80;9.05;;;11.00;60.80;;;;;;7565818;23;20006;-68
2023/02/22 05:36:53;;;;;;;21.73;7.97;;;11.00;60.90;;;;;;7565842;23;20014;-69
2023/02/22 05:39:54;;;;;;;19.40;9.07;;;11.00;61.00;;;;;;7567200;23;20436;-68
2023/02/22 05:42:56;;;;;;;23.10;9.80;;;11.00;61.20;;;;;;7567482;23;20010;-68
2023/02/22 05:45:57;;;;;;;23.05;10.35;;;11.00;61.20;;;;;;7541968;23;20473;-70
2023/02/22 05:48:58;;;;;;;22.50;10.27;;;11.00;61.40;;;;;;7567350;23;20048;-66
2023/02/22 05:51:59;;;;;;;31.38;12.10;;;11.00;61.50;;;;;;7567607;23;20114;-70
2023/02/22 05:55:00;;;;;;;23.20;10.02;;;11.00;61.50;;;;;;7567803;23;20413;-70
2023/02/22 05:58:04;;;;;;;24.17;9.07;;;11.00;61.50;;;;;;7567303;23;20329;-69
2023/02/22 06:01:05;;;;;;;18.55;8.30;;;11.00;61.50;;;;;;7541848;23;20192;-70
2023/02/22 06:04:07;;;;;;;25.15;8.93;;;11.00;61.30;;;;;;7541957;23;20025;-69
2023/02/22 06:07:09;;;;;;;19.63;7.78;;;11.10;61.40;;;;;;7566613;23;20022;-69
2023/02/22 06:10:10;;;;;;;15.50;6.63;;;11.10;61.30;;;;;;7567277;23;20007;-69
2023/02/22 06:13:11;;;;;;;28.88;9.85;;;11.10;61.20;;;;;;7541344;23;20181;-69
2023/02/22 06:16:12;;;;;;;20.58;9.25;;;11.10;61.10;;;;;;7567132;23;20011;-69
2023/02/22 06:19:13;;;;;;;23.77;9.90;;;11.10;61.20;;;;;;7566831;23;20032;-68
2023/02/22 06:22:17;;;;;;;24.75;10.75;;;11.10;61.30;;;;;;7567281;23;20378;-68
2023/02/22 06:25:22;;;;;;;28.90;11.10;;;11.10;61.30;;;;;;7541374;23;20021;-69
2023/02/22 06:28:25;;;;;;;24.35;10.00;;;11.20;61.30;;;;;;7541249;23;20014;-68
2023/02/22 06:31:26;;;;;;;22.27;9.75;;;11.20;61.30;;;;;;7566844;23;20010;-67
2023/02/22 06:34:27;;;;;;;23.85;10.60;;;11.20;61.40;;;;;;7566993;23;20310;-68
2023/02/22 06:37:28;;;;;;;25.27;10.63;;;11.20;61.40;;;;;;7566753;23;20483;-69
2023/02/22 06:40:29;;;;;;;23.40;8.48;;;11.10;61.50;;;;;;7566755;23;20010;-69
2023/02/22 06:43:30;;;;;;;24.30;9.82;;;11.10;61.60;;;;;;7566823;23;20010;-68
2023/02/22 06:46:31;;;;;;;27.00;10.10;;;11.00;61.80;;;;;;7540922;23;20018;-70
2023/02/22 06:49:32;;;;;;;25.95;10.73;;;11.00;61.90;;;;;;7566146;23;20002;-68
2023/02/22 06:52:34;;;;;;;28.20;10.60;;;11.00;62.00;;;;;;7566557;23;20022;-69
2023/02/22 06:55:35;;;;;;;25.55;10.55;;;11.00;62.00;;;;;;7566646;23;20089;-69
2023/02/22 06:58:36;;;;;;;24.75;10.48;;;11.10;62.00;;;;;;7565965;23;20010;-69
2023/02/22 07:01:40;;;;;;;29.67;10.98;;;11.10;61.90;;;;;;7566493;23;20440;-69
2023/02/22 07:04:41;;;;;;;38.20;10.10;;;11.20;62.00;;;;;;7566018;23;20081;-69
2023/02/22 07:07:43;;;;;;;25.17;9.65;;;11.10;61.90;;;;;;7566862;23;20014;-70
2023/02/22 07:10:44;;;;;;;21.83;10.40;;;11.10;61.90;;;;;;7566919;23;20134;-69
2023/02/22 07:13:45;;;;;;;27.65;10.60;;;11.20;62.00;;;;;;7543250;23;20427;-69
2023/02/22 07:16:46;;;;;;;27.92;10.82;;;11.20;61.90;;;;;;7545720;23;20025;-68
2023/02/22 07:19:47;;;;;;;20.70;8.80;;;11.30;61.90;;;;;;7542065;23;20010;-71
2023/02/22 07:22:48;;;;;;;22.80;9.80;;;11.30;61.70;;;;;;7566440;23;20081;-71
2023/02/22 07:25:49;;;;;;;24.13;9.52;;;11.40;61.60;;;;;;7540929;23;20093;-69
2023/02/22 07:28:50;;;;;;;20.60;9.50;;;11.50;61.30;;;;;;7565303;23;20079;-68
2023/02/22 07:31:52;;;;;;;31.88;9.60;;;11.00;60.70;;;;;;7566117;23;20073;-69
2023/02/22 07:34:53;;;;;;;23.42;9.30;;;11.50;61.00;;;;;;7565926;23;20009;-68
2023/02/22 07:37:54;;;;;;;27.70;11.48;;;11.50;60.80;;;;;;7565655;23;20006;-70
2023/02/22 07:40:56;;;;;;;26.27;11.57;;;11.50;61.70;;;;;;7540525;23;20081;-69
2023/02/22 07:43:57;;;;;;;23.48;9.90;;;11.60;60.90;;;;;;7566119;23;20385;-69
2023/02/22 07:46:58;;;;;;;20.05;9.30;;;11.60;60.70;;;;;;7565501;23;20010;-70
2023/02/22 07:49:59;;;;;;;31.73;11.07;;;11.70;60.60;;;;;;7540015;23;20021;-67
2023/02/22 07:53:07;;;;;;;32.50;12.18;;;11.70;60.50;;;;;;7540282;23;20010;-69
2023/02/22 07:56:08;;;;;;;28.33;10.23;;;11.80;60.50;;;;;;7540440;23;20015;-68
2023/02/22 07:59:09;;;;;;;28.42;10.88;;;11.80;60.20;;;;;;7541515;23;20332;-69
2023/02/22 08:02:15;;;;;;;31.40;11.70;;;11.90;60.20;;;;;;7574643;23;20013;-68
2023/02/22 08:05:18;;;;;;;38.13;10.93;;;11.90;60.10;;;;;;7567130;23;20085;-69
2023/02/22 08:08:19;;;;;;;28.60;11.95;;;12.00;60.00;;;;;;7565463;23;20006;-69
2023/02/22 08:11:21;;;;;;;26.40;11.00;;;12.10;60.00;;;;;;7565884;23;20432;-69
2023/02/22 08:14:22;;;;;;;21.25;10.35;;;12.20;59.90;;;;;;7565623;23;20310;-69
2023/02/22 08:17:23;;;;;;;27.73;10.57;;;12.20;59.60;;;;;;7565109;23;20400;-69
2023/02/22 08:20:24;;;;;;;23.27;10.50;;;12.30;59.50;;;;;;7565976;23;20018;-69
2023/02/22 08:23:26;;;;;;;35.15;12.02;;;12.20;59.40;;;;;;7539968;23;20036;-69
2023/02/22 08:26:27;;;;;;;26.67;12.57;;;12.30;59.40;;;;;;7565515;23;20010;-70
2023/02/22 08:29:32;;;;;;;25.08;10.55;;;12.30;59.30;;;;;;7564905;23;20426;-68
2023/02/22 08:32:34;;;;;;;29.13;12.50;;;12.30;59.30;;;;;;7540481;23;20010;-68
2023/02/22 08:35:35;;;;;;;27.40;12.15;;;12.20;59.30;;;;;;7564911;23;20062;-68
2023/02/22 08:38:37;;;;;;;28.85;11.32;;;12.30;59.40;;;;;;7538835;23;20046;-69
2023/02/22 08:41:38;;;;;;;32.75;11.50;;;12.30;59.40;;;;;;7540938;23;20081;-70
2023/02/22 08:44:39;;;;;;;33.80;12.55;;;12.30;59.40;;;;;;7567442;23;20073;-68
2023/02/22 08:47:40;;;;;;;28.90;10.63;;;12.40;59.30;;;;;;7517727;23;20006;-70
2023/02/22 08:50:43;;;;;;;27.38;12.50;;;12.50;59.20;;;;;;7542174;23;20081;-69
2023/02/22 08:53:44;;;;;;;22.70;10.32;;;12.60;58.90;;;;;;7567285;23;20017;-69
2023/02/22 08:56:45;;;;;;;24.25;11.02;;;12.60;58.80;;;;;;7567352;23;20011;-69
2023/02/22 08:59:46;;;;;;;32.13;11.43;;;12.60;58.70;;;;;;7541020;23;20017;-69
2023/02/22 09:02:47;;;;;;;28.63;12.65;;;12.60;58.60;;;;;;7541298;23;20050;-68
2023/02/22 09:05:48;;;;;;;29.42;11.93;;;12.70;58.70;;;;;;7540869;23;20432;-68
2023/02/22 09:08:49;;;;;;;30.85;13.63;;;12.60;58.60;;;;;;7566228;23;20010;-68
2023/02/22 09:11:50;;;;;;;32.20;12.15;;;12.70;58.70;;;;;;7567242;23;20134;-71
2023/02/22 09:14:51;;;;;;;28.38;12.40;;;12.70;58.60;;;;;;7541072;23;20332;-68
2023/02/22 09:17:53;;;;;;;27.25;11.75;;;12.80;58.60;;;;;;7540512;23;20010;-68
2023/02/22 09:20:54;;;;;;;25.85;11.52;;;12.90;58.50;;;;;;7540743;23;20010;-68
2023/02/22 09:23:55;;;;;;;27.17;12.52;;;13.00;58.40;;;;;;7541153;23;20479;-69
2023/02/22 09:26:58;;;;;;;34.38;13.02;;;13.00;58.40;;;;;;7566786;23;20017;-70
2023/02/22 09:29:59;;;;;;;28.17;13.38;;;13.00;58.40;;;;;;7566733;23;20045;-69
2023/02/22 09:33:20;;;;;;;31.13;12.20;;;13.10;58.30;;;;;;7566657;23;20010;-70
2023/02/22 09:36:21;;;;;;;30.60;12.88;;;13.10;58.30;;;;;;7541225;23;20038;-70
2023/02/22 09:39:22;;;;;;;33.38;13.40;;;13.10;58.20;;;;;;7566489;23;20070;-70
2023/02/22 09:42:33;;;;;;;29.23;11.70;;;13.10;58.20;;;;;;7566873;23;20014;-71
2023/02/22 09:46:12;;;;;;;29.70;11.55;;;13.10;58.20;;;;;;7566811;23;20025;-70
2023/02/22 09:49:39;;;;;;;30.47;11.97;;;13.20;58.10;;;;;;7566192;23;20019;-69
2023/02/22 09:53:06;;;;;;;32.35;11.98;;;13.20;58.00;;;;;;7540361;23;20237;-68
2023/02/22 09:56:11;;;;;;;33.95;12.57;;;13.20;58.00;;;;;;7540542;23;20011;-67
2023/02/22 09:59:17;;;;;;;29.50;12.48;;;13.30;58.00;;;;;;7540338;23;20603;-69
2023/02/22 10:02:27;;;;;;;30.35;12.52;;;13.30;57.80;;;;;;7540029;23;20484;-67
2023/02/22 10:05:36;;;;;;;31.35;12.90;;;13.30;57.70;;;;;;7565643;23;20010;-68
2023/02/22 10:08:38;;;;;;;28.35;12.20;;;13.30;57.60;;;;;;7565509;23;20089;-68
2023/02/22 10:12:07;;;;;;;31.02;13.80;;;13.40;57.70;;;;;;7539925;23;20007;-68
2023/02/22 10:15:30;;;;;;;31.15;15.52;;;13.50;57.80;;;;;;7540333;23;20007;-70
2023/02/22 10:18:46;;;;;;;35.15;14.43;;;13.50;57.70;;;;;;7565902;23;20389;-69
2023/02/22 10:22:06;;;;;;;36.17;13.88;;;13.60;57.70;;;;;;7516354;23;20339;-68
2023/02/22 10:25:16;;;;;;;37.60;14.13;;;13.70;57.70;;;;;;7565801;23;20161;-67
2023/02/22 10:28:23;;;;;;;32.58;14.00;;;13.70;57.50;;;;;;7565557;23;20104;-70
2023/02/22 10:31:30;;;;;;;38.30;16.85;;;13.80;57.40;;;;;;7540337;23;20101;-68
2023/02/22 10:34:43;;;;;;;34.15;14.18;;;13.80;57.30;;;;;;7565705;23;20081;-68
2023/02/22 10:37:44;;;;;;;38.83;12.25;;;13.70;57.20;;;;;;7565428;23;20401;-67
2023/02/22 10:40:55;;;;;;;29.40;12.98;;;13.80;57.20;;;;;;7565606;23;20353;-69
2023/02/22 10:43:57;;;;;;;34.15;13.07;;;13.80;57.20;;;;;;7565651;23;20016;-68
2023/02/22 10:47:01;;;;;;;33.08;14.48;;;13.70;57.20;;;;;;7565480;23;20014;-69
2023/02/22 10:50:03;;;;;;;41.55;15.38;;;13.70;57.20;;;;;;7540481;23;20031;-68
2023/02/22 10:53:05;;;;;;;37.08;14.10;;;13.80;57.30;;;;;;7566304;23;20029;-68
2023/02/22 10:56:20;;;;;;;32.38;13.30;;;13.90;57.20;;;;;;7543030;23;20030;-70
2023/02/22 10:59:34;;;;;;;38.72;14.57;;;13.90;57.10;;;;;;7543215;23;20014;-69
2023/02/22 11:02:35;;;;;;;33.63;13.15;;;14.00;57.00;;;;;;7540259;23;20014;-68
2023/02/22 11:05:39;;;;;;;36.50;15.73;;;14.00;56.80;;;;;;7539248;23;20033;-68
2023/02/22 11:08:40;;;;;;;40.78;15.52;;;14.10;56.80;;;;;;7564859;23;20094;-70
2023/02/22 11:11:44;;;;;;;35.22;16.65;;;14.10;56.80;;;;;;7565321;23;20633;-68
2023/02/22 11:14:46;;;;;;;38.38;13.73;;;14.20;56.70;;;;;;7565305;23;20365;-68
2023/02/22 11:17:50;;;;;;;38.90;14.68;;;14.80;56.90;;;;;;7539084;23;20015;-68
2023/02/22 11:21:00;;;;;;;35.72;15.45;;;14.40;56.60;;;;;;7539367;23;20018;-68
2023/02/22 11:24:08;;;;;;;38.25;15.07;;;14.40;56.40;;;;;;7539458;23;20006;-69
2023/02/22 11:27:09;;;;;;;35.90;15.45;;;14.50;56.20;;;;;;7564583;23;20010;-69
2023/02/22 11:30:20;;;;;;;36.63;16.05;;;14.50;56.20;;;;;;7538702;23;20011;-68
2023/02/22 11:33:24;;;;;;;31.60;13.95;;;14.60;56.20;;;;;;7564567;23;20007;-69
2023/02/22 11:36:39;;;;;;;40.03;15.52;;;14.60;56.10;;;;;;7564758;23;20092;-68
2023/02/22 11:39:42;;;;;;;35.42;14.98;;;14.60;56.00;;;;;;7550824;23;20014;-68
2023/02/22 11:42:43;;;;;;;40.47;15.70;;;14.60;55.90;;;;;;7565145;23;20353;-69
2023/02/22 11:46:07;;;;;;;42.10;14.73;;;14.60;55.90;;;;;;7563187;23;20010;-70
2023/02/22 11:49:11;;;;;;;37.15;15.40;;;14.50;56.00;;;;;;7565031;23;20328;-69
2023/02/22 11:52:28;;;;;;;30.10;14.25;;;14.50;56.10;;;;;;7565299;23;20010;-69
2023/02/22 11:55:37;;;;;;;27.83;12.75;;;14.50;56.00;;;;;;7564602;23;20582;-68
2023/02/22 11:58:48;;;;;;;36.50;12.75;;;14.70;55.90;;;;;;7564749;23;20397;-70
2023/02/22 12:02:26;;;;;;;31.83;13.98;;;14.80;55.60;;;;;;7564556;23;20011;-69
2023/02/22 12:05:45;;;;;;;41.35;14.35;;;15.00;55.20;;;;;;7565153;23;20069;-69
2023/02/22 12:09:05;;;;;;;50.33;15.90;;;15.00;54.80;;;;;;7563199;23;20077;-69
2023/02/22 12:12:20;;;;;;;38.75;14.15;;;15.10;54.80;;;;;;7565211;23;20013;-72
2023/02/22 12:15:56;;;;;;;34.88;14.25;;;15.40;54.80;;;;;;7563316;23;20034;-68
2023/02/22 12:19:09;;;;;;;31.75;14.27;;;15.20;54.40;;;;;;7431487;23;20008;-68
2023/02/22 12:22:23;;;;;;;33.00;12.75;;;15.20;54.00;;;;;;7431917;23;20059;-69
2023/02/22 12:25:30;;;;;;;29.25;13.82;;;15.20;54.00;;;;;;7455092;23;20016;-69
2023/02/22 12:28:58;;;;;;;38.50;14.88;;;15.20;54.00;;;;;;7454545;23;20007;-69
2023/02/22 12:32:15;;;;;;;37.13;16.50;;;15.30;54.00;;;;;;7385305;24;20019;-70
2023/02/22 12:35:23;;;;;;;45.90;15.00;;;15.40;54.00;;;;;;7385577;24;20015;-69
2023/02/22 12:38:39;;;;;;;38.47;14.48;;;15.40;53.90;;;;;;7384533;24;20045;-68
2023/02/22 12:41:45;;;;;;;39.45;15.52;;;15.60;54.00;;;;;;7362158;24;20051;-68
2023/02/22 12:44:54;;;;;;;32.72;14.98;;;15.70;53.70;;;;;;7384808;24;20020;-71
2023/02/22 12:48:13;;;;;;;40.20;15.63;;;15.90;53.50;;;;;;7384534;24;20017;-69
2023/02/22 12:51:38;;;;;;;39.63;14.68;;;16.00;53.30;;;;;;7385284;24;20005;-68
2023/02/22 12:54:40;;;;;;;34.13;13.48;;;16.10;53.00;;;;;;7401543;23;20056;-69
2023/02/22 12:58:21;;;;;;;37.42;14.90;;;16.10;52.80;;;;;;7430753;23;20415;-70
2023/02/22 13:01:28;;;;;;;36.05;12.50;;;16.20;52.90;;;;;;7454565;23;20098;-71
2023/02/22 13:04:31;;;;;;;30.83;13.52;;;16.30;52.70;;;;;;7454883;23;20126;-70
2023/02/22 13:08:01;;;;;;;26.58;11.95;;;16.40;52.50;;;;;;7422561;23;20041;-68
2023/02/22 13:11:15;;;;;;;36.80;13.80;;;16.40;52.30;;;;;;7565016;23;20483;-69
2023/02/22 13:14:31;;;;;;;38.70;14.32;;;16.40;52.10;;;;;;7564451;23;20007;-69
2023/02/22 13:17:42;;;;;;;35.08;14.38;;;16.50;52.10;;;;;;7563034;23;20033;-69
2023/02/22 13:20:52;;;;;;;36.90;12.82;;;16.60;52.00;;;;;;7564951;23;20014;-68
2023/02/22 13:24:04;;;;;;;34.38;12.95;;;16.60;51.80;;;;;;7563453;23;20026;-69
2023/02/22 13:27:34;;;;;;;27.42;12.45;;;16.60;51.80;;;;;;7565421;23;20435;-69
2023/02/22 13:30:57;;;;;;;26.90;12.55;;;16.70;51.80;;;;;;7492220;23;20083;-70
2023/02/22 13:34:26;;;;;;;36.83;11.50;;;16.80;51.50;;;;;;7492311;23;20022;-69
2023/02/22 13:37:43;;;;;;;33.15;13.98;;;16.90;51.40;;;;;;7491883;23;20118;-69
2023/02/22 13:40:52;;;;;;;31.23;13.73;;;16.90;51.30;;;;;;7492676;23;20445;-68
2023/02/22 13:44:29;;;;;;;38.40;15.40;;;17.00;51.20;;;;;;7469724;23;20043;-70
2023/02/22 13:47:45;;;;;;;43.22;15.43;;;17.00;51.20;;;;;;7492643;23;20015;-68
2023/02/22 13:51:10;;;;;;;42.88;15.52;;;17.10;51.10;;;;;;7494300;23;20154;-69
2023/02/22 13:54:27;;;;;;;36.30;14.30;;;17.10;50.90;;;;;;7493206;23;20018;-69
2023/02/22 13:57:36;;;;;;;38.65;13.88;;;17.00;50.70;;;;;;7492281;23;20011;-69
2023/02/22 14:00:44;;;;;;;33.72;14.85;;;17.00;50.80;;;;;;7492425;23;20019;-68
2023/02/22 14:03:47;;;;;;;27.85;13.23;;;17.10;50.80;;;;;;7497295;23;20015;-70
2023/02/22 14:06:48;;;;;;;38.55;15.65;;;17.10;50.70;;;;;;7519100;23;20006;-69
2023/02/22 14:09:58;;;;;;;36.63;16.42;;;17.20;50.50;;;;;;7564983;23;20041;-69
2023/02/22 14:13:06;;;;;;;34.13;14.95;;;17.20;50.40;;;;;;7566182;23;20011;-68
2023/02/22 14:16:07;;;;;;;;;;;17.20;50.30;;;;;;7565402;23;20026;-68
2023/02/22 14:19:13;;;;;;;37.10;14.20;;;17.20;50.30;;;;;;7564686;23;19905;-68
2023/02/22 14:22:25;;;;;;;42.58;15.52;;;17.20;50.30;;;;;;7564790;23;20078;-68
2023/02/22 14:25:32;;;;;;;39.80;15.60;;;17.30;50.40;;;;;;7566573;23;20088;-70
2023/02/22 14:29:03;;;;;;;34.22;14.95;;;17.30;50.40;;;;;;7565685;23;20031;-70
2023/02/22 14:32:09;;;;;;;32.97;14.32;;;17.20;50.40;;;;;;7566100;23;20034;-68
2023/02/22 14:35:16;;;;;;;40.28;15.90;;;17.10;50.40;;;;;;7564678;23;20344;-69
2023/02/22 14:38:18;;;;;;;32.60;15.20;;;17.10;50.50;;;;;;7563595;23;20313;-68
2023/02/22 14:41:27;;;;;;;36.30;14.50;;;17.00;50.40;;;;;;7540212;23;20007;-69
2023/02/22 14:44:49;;;;;;;39.30;14.95;;;16.90;50.50;;;;;;7540216;23;20065;-69
2023/02/22 14:48:19;;;;;;;34.72;14.93;;;16.80;50.60;;;;;;7565213;23;20018;-68
2023/02/22 14:51:33;;;;;;;;;;;16.60;50.90;;;;;;7564624;23;20022;-67
2023/02/22 14:54:51;;;;;;;40.78;15.60;;;16.60;51.00;;;;;;7539991;23;20246;-69
2023/02/22 14:58:27;;;;;;;41.63;15.43;;;16.50;51.10;;;;;;7565577;23;20006;-69
2023/02/22 15:01:38;;;;;;;44.13;15.48;;;16.50;51.30;;;;;;7455804;23;20016;-68
2023/02/22 15:04:42;;;;;;;40.78;15.82;;;16.50;51.30;;;;;;7432295;23;20008;-69
2023/02/22 15:07:59;;;;;;;39.75;15.25;;;16.50;51.30;;;;;;7455248;23;20430;-68
2023/02/22 15:11:01;;;;;;;37.50;16.23;;;16.50;51.30;;;;;;7455619;23;20019;-68
2023/02/22 15:14:14;;;;;;;41.38;17.10;;;16.60;51.30;;;;;;7432327;23;20343;-69
2023/02/22 15:17:25;;;;;;;52.80;16.52;;;16.70;51.30;;;;;;7455149;23;20012;-69
2023/02/22 15:20:28;;;;;;;35.78;16.48;;;16.80;51.10;;;;;;7454466;23;20087;-69
2023/02/22 15:23:47;;;;;;;49.92;15.23;;;17.00;51.00;;;;;;7455166;23;20012;-70
2023/02/22 15:26:48;;;;;;;33.40;15.35;;;17.10;50.80;;;;;;7431234;23;20019;-70
2023/02/22 15:30:03;;;;;;;47.17;16.10;;;17.10;50.60;;;;;;7454975;23;20004;-69
2023/02/22 15:33:16;;;;;;;43.63;16.55;;;17.10;50.70;;;;;;7431751;23;20067;-69
2023/02/22 15:36:18;;;;;;;38.95;16.67;;;17.10;50.60;;;;;;7551866;23;20018;-67
2023/02/22 15:39:28;;;;;;;44.45;16.90;;;17.10;50.70;;;;;;7564467;23;20093;-70
2023/02/22 15:42:29;;;;;;;54.42;18.27;;;17.00;50.80;;;;;;7565185;23;20010;-69
2023/02/22 15:45:33;;;;;;;38.63;15.52;;;17.00;50.80;;;;;;7565629;23;20010;-68
2023/02/22 15:48:36;;;;;;;37.75;16.48;;;16.90;50.80;;;;;;7539116;23;20014;-68
2023/02/22 15:51:40;;;;;;;43.80;17.30;;;16.90;50.90;;;;;;7565286;23;20487;-69
2023/02/22 15:54:47;;;;;;;51.92;16.92;;;16.80;51.00;;;;;;7539612;23;20006;-70